| time (UTC) | temp F | wind direction | speed MPH | gust MPH | rain 1hr in | rain 24hr in | rain mn in | humidity % | barometer mb |
| 20260510035306 | 64 | 42 | 10.0 | 23.0 | 0.00 | 0.00 | 0.00 | 81 | 1013.7 |
| 20260510034803 | 64 | 190 | 13.0 | 25.0 | 0.00 | 0.00 | 0.00 | 78 | 1012.3 |
| 20260510034303 | 66 | 145 | 15.0 | 40.0 | 0.00 | 0.00 | 0.00 | 73 | 1012.3 |
| 20260510033304 | 70 | 350 | 2.0 | 54.0 | 0.00 | 0.03 | 0.00 | 58 | 1012.3 |
| 20260510032802 | 70 | 33 | 0.0 | 0.0 | 0.00 | 0.06 | 0.00 | 53 | 1011.3 |
| 20260510031803 | 70 | 145 | 0.0 | 0.0 | 0.00 | 0.10 | 0.00 | 53 | 1011.3 |
| 20260510031303 | 70 | 145 | 0.0 | 0.0 | 0.00 | 0.10 | 0.00 | 53 | 1011.3 |
| 20260510030803 | 70 | 145 | 0.0 | 0.0 | 0.00 | 0.10 | 0.00 | 52 | 1010.8 |
| 20260510030302 | 70 | 145 | 0.0 | 0.0 | 0.00 | 0.10 | 0.00 | 52 | 1010.8 |
| 20260510025802 | 71 | 145 | 0.0 | 0.0 | 0.00 | 0.13 | 0.00 | 51 | 1010.8 |
| 20260510024803 | 71 | 145 | 0.0 | 0.0 | 0.00 | 0.19 | 0.00 | 51 | 1010.6 |
| 20260510024303 | 71 | 145 | 0.0 | 0.0 | 0.00 | 0.19 | 0.00 | 50 | 1010.6 |
| 20260510023803 | 71 | 145 | 0.0 | 0.0 | 0.00 | 0.19 | 0.00 | 50 | 1010.6 |
| 20260510022306 | 71 | 145 | 0.0 | 0.0 | 0.00 | 0.19 | 0.00 | 49 | 1010.2 |
| 20260510021803 | 71 | 145 | 0.0 | 0.0 | 0.00 | 0.19 | 0.00 | 48 | 1010.2 |
| 20260510021302 | 71 | 145 | 0.0 | 0.0 | 0.00 | 0.19 | 0.00 | 47 | 1010.2 |
| 20260510020303 | 72 | 145 | 0.0 | 0.0 | 0.00 | 0.19 | 0.00 | 45 | 1010.1 |
| 20260510015803 | 72 | 145 | 0.0 | 0.0 | 0.00 | 0.19 | 0.00 | 45 | 1010.1 |
| 20260510015306 | 72 | 145 | 0.0 | 0.0 | 0.00 | 0.19 | 0.00 | 44 | 1010.1 |
| 20260510014803 | 73 | 145 | 0.0 | 0.0 | 0.00 | 0.19 | 0.00 | 44 | 1009.6 |
| 20260510014303 | 73 | 145 | 0.0 | 0.0 | 0.00 | 0.19 | 0.00 | 42 | 1009.6 |
| 20260510013303 | 74 | 145 | 0.0 | 0.0 | 0.00 | 0.19 | 0.00 | 41 | 1009.6 |
| 20260510012306 | 75 | 145 | 0.0 | 0.0 | 0.00 | 0.19 | 0.00 | 38 | 1009.6 |
| 20260510011803 | 75 | 145 | 0.0 | 0.0 | 0.00 | 0.19 | 0.00 | 37 | 1009.6 |
| 20260510011303 | 76 | 145 | 0.0 | 0.0 | 0.00 | 0.19 | 0.00 | 37 | 1009.6 |
| 20260510010802 | 76 | 145 | 0.0 | 0.0 | 0.00 | 0.19 | 0.00 | 36 | 1009.2 |
| 20260510005802 | 78 | 167 | 0.0 | 0.0 | 0.00 | 0.19 | 0.00 | 36 | 1009.2 |
| 20260510005306 | 78 | 167 | 0.0 | 0.0 | 0.00 | 0.19 | 0.00 | 36 | 1009.2 |
| 20260510004802 | 79 | 167 | 0.0 | 0.0 | 0.00 | 0.19 | 0.00 | 34 | 1009.2 |
| 20260510004303 | 79 | 127 | 0.0 | 0.0 | 0.00 | 0.19 | 0.00 | 34 | 1009.2 |
| 20260510003802 | 80 | 167 | 0.0 | 0.0 | 0.00 | 0.19 | 0.00 | 34 | 1009.2 |
| 20260510003304 | 80 | 167 | 0.0 | 0.0 | 0.00 | 0.19 | 0.00 | 33 | 1009.2 |
| 20260510002803 | 79 | 167 | 1.0 | 0.0 | 0.00 | 0.19 | 0.00 | 33 | 1008.9 |
| 20260510002306 | 79 | 163 | 1.0 | 0.0 | 0.00 | 0.19 | 0.00 | 33 | 1008.9 |
| 20260510001803 | 80 | 213 | 1.0 | 3.0 | 0.00 | 0.19 | 0.00 | 32 | 1008.9 |
| 20260510001303 | 80 | 167 | 3.0 | 10.0 | 0.00 | 0.19 | 0.00 | 32 | 1008.9 |
| 20260510000803 | 80 | 100 | 3.0 | 10.0 | 0.00 | 0.19 | 0.00 | 31 | 1009.2 |
| 20260510000304 | 80 | 181 | 3.0 | 6.0 | 0.00 | 0.19 | 0.00 | 31 | 1009.2 |
| 20260509235306 | 80 | 163 | 3.0 | 7.0 | 0.00 | 0.19 | 0.00 | 31 | 1009.2 |
| 20260509234803 | 81 | 123 | 2.0 | 8.0 | 0.00 | 0.19 | 0.00 | 31 | 1008.5 |
| 20260509234303 | 81 | 136 | 3.0 | 8.0 | 0.00 | 0.19 | 0.00 | 30 | 1008.5 |
| 20260509233803 | 81 | 303 | 5.0 | 9.0 | 0.00 | 0.19 | 0.00 | 30 | 1008.5 |
| 20260509233303 | 82 | 141 | 3.0 | 13.0 | 0.00 | 0.19 | 0.00 | 30 | 1008.5 |
| 20260509232306 | 83 | 272 | 5.0 | 7.0 | 0.00 | 0.19 | 0.00 | 29 | 1008.5 |
| 20260509231802 | 83 | 55 | 5.0 | 7.0 | 0.00 | 0.19 | 0.00 | 29 | 1008.5 |
| 20260509231302 | 85 | 287 | 5.0 | 7.0 | 0.00 | 0.19 | 0.00 | 29 | 1008.5 |
| 20260509230303 | 86 | 150 | 6.0 | 10.0 | 0.00 | 0.19 | 0.00 | 29 | 1008.3 |
| 20260509225803 | 86 | 145 | 6.0 | 9.0 | 0.00 | 0.19 | 0.00 | 29 | 1008.3 |
| 20260509225305 | 86 | 145 | 5.0 | 9.0 | 0.00 | 0.19 | 0.00 | 28 | 1008.3 |
| 20260509224803 | 87 | 347 | 3.0 | 7.0 | 0.00 | 0.19 | 0.00 | 30 | 1008.5 |
| 20260509224303 | 87 | 145 | 4.0 | 14.0 | 0.00 | 0.19 | 0.00 | 29 | 1008.5 |
| 20260509223803 | 87 | 167 | 3.0 | 12.0 | 0.00 | 0.19 | 0.00 | 30 | 1008.5 |
| 20260509223302 | 87 | 127 | 3.0 | 13.0 | 0.00 | 0.19 | 0.00 | 29 | 1008.5 |
| 20260509222306 | 86 | 0 | 5.0 | 14.0 | 0.00 | 0.19 | 0.00 | 29 | 1008.5 |
| 20260509221803 | 87 | 347 | 3.0 | 5.0 | 0.00 | 0.19 | 0.00 | 29 | 1008.5 |
| 20260509221303 | 87 | 335 | 3.0 | 10.0 | 0.00 | 0.19 | 0.00 | 29 | 1008.5 |
| 20260509220802 | 87 | 303 | 2.0 | 8.0 | 0.00 | 0.19 | 0.00 | 29 | 1008.4 |
| 20260509220303 | 87 | 309 | 2.0 | 8.0 | 0.00 | 0.19 | 0.00 | 29 | 1008.4 |
| 20260509214803 | 85 | 347 | 6.0 | 14.0 | 0.00 | 0.19 | 0.00 | 30 | 1008.5 |
| 20260509214303 | 85 | 359 | 6.0 | 18.0 | 0.00 | 0.19 | 0.00 | 29 | 1008.5 |
| 20260509213303 | 86 | 307 | 3.0 | 9.0 | 0.00 | 0.19 | 0.00 | 29 | 1007.3 |
| 20260509212802 | 86 | 213 | 5.0 | 5.0 | 0.00 | 0.19 | 0.00 | 30 | 1007.7 |
| 20260509212305 | 87 | 311 | 4.0 | 13.0 | 0.00 | 0.19 | 0.00 | 32 | 1007.7 |
| 20260509211303 | 85 | 80 | 4.0 | 14.0 | 0.00 | 0.19 | 0.00 | 31 | 1007.7 |
| 20260509210304 | 85 | 325 | 6.0 | 14.0 | 0.00 | 0.19 | 0.00 | 31 | 1007.7 |
| 20260509205803 | 85 | 145 | 5.0 | 18.0 | 0.00 | 0.19 | 0.00 | 31 | 1007.7 |
| 20260509205306 | 85 | 163 | 5.0 | 18.0 | 0.00 | 0.19 | 0.00 | 32 | 1007.7 |
| 20260509204803 | 84 | 10 | 5.0 | 9.0 | 0.00 | 0.19 | 0.00 | 32 | 1008.1 |
| 20260509204303 | 84 | 331 | 5.0 | 10.0 | 0.00 | 0.19 | 0.00 | 32 | 1008.1 |
| 20260509203803 | 83 | 145 | 6.0 | 10.0 | 0.00 | 0.19 | 0.00 | 32 | 1008.1 |
| 20260509202803 | 83 | 325 | 6.0 | 12.0 | 0.00 | 0.19 | 0.00 | 32 | 1007.9 |
| 20260509201303 | 84 | 2 | 6.0 | 10.0 | 0.00 | 0.19 | 0.00 | 33 | 1007.9 |
| 20260509200303 | 84 | 42 | 6.0 | 13.0 | 0.00 | 0.19 | 0.00 | 35 | 1007.9 |
| 20260509195803 | 84 | 167 | 7.0 | 13.0 | 0.00 | 0.19 | 0.00 | 36 | 1007.9 |
| 20260509195306 | 83 | 163 | 8.0 | 15.0 | 0.00 | 0.19 | 0.00 | 37 | 1007.9 |
| 20260509194803 | 83 | 145 | 7.0 | 15.0 | 0.00 | 0.19 | 0.00 | 36 | 1008.3 |
| 20260509194303 | 83 | 159 | 6.0 | 9.0 | 0.00 | 0.19 | 0.00 | 36 | 1008.3 |
| 20260509193803 | 83 | 280 | 7.0 | 16.0 | 0.00 | 0.19 | 0.00 | 36 | 1008.3 |
| 20260509192803 | 82 | 347 | 5.0 | 12.0 | 0.00 | 0.19 | 0.00 | 37 | 1008.4 |
| 20260509191803 | 83 | 100 | 6.0 | 14.0 | 0.00 | 0.19 | 0.00 | 37 | 1008.4 |
| 20260509191303 | 82 | 338 | 6.0 | 17.0 | 0.00 | 0.19 | 0.00 | 40 | 1008.4 |
| 20260509190803 | 82 | 145 | 5.0 | 14.0 | 0.00 | 0.19 | 0.00 | 40 | 1008.5 |
| 20260509190304 | 81 | 292 | 5.0 | 8.0 | 0.00 | 0.19 | 0.00 | 40 | 1008.5 |
| 20260509185804 | 81 | 303 | 5.0 | 8.0 | 0.00 | 0.19 | 0.00 | 40 | 1008.5 |
| 20260509185306 | 81 | 115 | 6.0 | 8.0 | 0.00 | 0.19 | 0.00 | 41 | 1008.5 |
| 20260509183803 | 80 | 145 | 7.0 | 16.0 | 0.00 | 0.19 | 0.00 | 42 | 1008.6 |
| 20260509183303 | 80 | 325 | 9.0 | 9.0 | 0.00 | 0.19 | 0.00 | 43 | 1008.6 |
| 20260509182803 | 80 | 280 | 8.0 | 18.0 | 0.00 | 0.19 | 0.00 | 43 | 1008.6 |
| 20260509182306 | 80 | 145 | 6.0 | 22.0 | 0.00 | 0.19 | 0.00 | 42 | 1008.6 |
| 20260509181303 | 79 | 138 | 8.0 | 21.0 | 0.00 | 0.19 | 0.00 | 45 | 1008.6 |
| 20260509180303 | 77 | 325 | 7.0 | 17.0 | 0.00 | 0.19 | 0.00 | 48 | 1008.7 |
| 20260509175803 | 77 | 100 | 8.0 | 17.0 | 0.00 | 0.19 | 0.00 | 48 | 1008.7 |
| 20260509175306 | 76 | 139 | 7.0 | 14.0 | 0.00 | 0.19 | 0.00 | 52 | 1008.7 |
| 20260509174304 | 75 | 335 | 7.0 | 18.0 | 0.00 | 0.19 | 0.00 | 52 | 1008.9 |
| 20260509173804 | 74 | 347 | 7.0 | 18.0 | 0.00 | 0.19 | 0.00 | 52 | 1008.9 |
| 20260509172803 | 74 | 167 | 6.0 | 13.0 | 0.00 | 0.19 | 0.00 | 55 | 1009.0 |
| 20260509172306 | 73 | 140 | 6.0 | 17.0 | 0.00 | 0.19 | 0.00 | 55 | 1009.0 |
| 20260509171803 | 73 | 303 | 8.0 | 17.0 | 0.00 | 0.19 | 0.00 | 55 | 1009.0 |
| 20260509171304 | 72 | 145 | 8.0 | 20.0 | 0.00 | 0.19 | 0.00 | 58 | 1009.0 |
| 20260509170804 | 72 | 145 | 7.0 | 20.0 | 0.00 | 0.19 | 0.00 | 58 | 1009.5 |
| 20260509165803 | 72 | 167 | 7.0 | 12.0 | 0.00 | 0.19 | 0.00 | 60 | 1009.5 |
| 20260509165306 | 71 | 127 | 6.0 | 15.0 | 0.00 | 0.19 | 0.00 | 59 | 1009.5 |
| 20260509164304 | 70 | 149 | 5.0 | 12.0 | 0.00 | 0.19 | 0.00 | 63 | 1009.4 |
| 20260509163803 | 70 | 347 | 5.0 | 12.0 | 0.00 | 0.19 | 0.00 | 64 | 1009.4 |
| 20260509162803 | 69 | 332 | 6.0 | 9.0 | 0.00 | 0.19 | 0.00 | 65 | 1009.5 |
| 20260509162307 | 69 | 138 | 6.0 | 14.0 | 0.00 | 0.19 | 0.00 | 66 | 1009.5 |
| 20260509161804 | 69 | 123 | 5.0 | 8.0 | 0.00 | 0.19 | 0.00 | 67 | 1010.0 |
| 20260509161303 | 68 | 157 | 5.0 | 9.0 | 0.00 | 0.19 | 0.00 | 68 | 1010.0 |
| 20260509160804 | 68 | 123 | 5.0 | 7.0 | 0.00 | 0.19 | 0.00 | 68 | 1009.9 |
| 20260509160303 | 68 | 121 | 3.0 | 10.0 | 0.00 | 0.19 | 0.00 | 70 | 1009.9 |
| 20260509155804 | 67 | 325 | 3.0 | 10.0 | 0.00 | 0.19 | 0.00 | 73 | 1009.9 |
| 20260509155306 | 67 | 190 | 5.0 | 10.0 | 0.00 | 0.19 | 0.00 | 75 | 1009.9 |
| 20260509154803 | 66 | 10 | 5.0 | 14.0 | 0.00 | 0.19 | 0.00 | 74 | 1010.0 |
| 20260509154303 | 66 | 155 | 5.0 | 14.0 | 0.00 | 0.19 | 0.00 | 76 | 1010.0 |
| 20260509153803 | 65 | 145 | 5.0 | 9.0 | 0.00 | 0.19 | 0.00 | 77 | 1010.0 |
| 20260509153303 | 65 | 145 | 5.0 | 7.0 | 0.00 | 0.19 | 0.00 | 77 | 1010.0 |
| 20260509152803 | 65 | 145 | 3.0 | 10.0 | 0.00 | 0.19 | 0.00 | 79 | 1010.1 |
| 20260509152306 | 64 | 197 | 5.0 | 10.0 | 0.00 | 0.19 | 0.00 | 79 | 1010.1 |
| 20260509151804 | 64 | 167 | 6.0 | 12.0 | 0.00 | 0.19 | 0.00 | 80 | 1010.1 |
| 20260509151303 | 64 | 145 | 6.0 | 12.0 | 0.00 | 0.19 | 0.00 | 81 | 1010.1 |
| 20260509150804 | 63 | 145 | 6.0 | 8.0 | 0.00 | 0.19 | 0.00 | 82 | 1010.0 |
| 20260509150304 | 63 | 145 | 3.0 | 8.0 | 0.00 | 0.19 | 0.00 | 83 | 1010.0 |
| 20260509145803 | 63 | 145 | 3.0 | 8.0 | 0.00 | 0.19 | 0.00 | 84 | 1010.0 |
| 20260509145306 | 63 | 181 | 3.0 | 9.0 | 0.00 | 0.19 | 0.00 | 84 | 1010.0 |
| 20260509144803 | 63 | 145 | 3.0 | 5.0 | 0.00 | 0.19 | 0.00 | 84 | 1009.9 |
| 20260509144303 | 62 | 234 | 5.0 | 5.0 | 0.00 | 0.19 | 0.00 | 84 | 1009.9 |
| 20260509143803 | 62 | 303 | 5.0 | 6.0 | 0.00 | 0.19 | 0.00 | 85 | 1009.9 |
| 20260509143304 | 62 | 145 | 5.0 | 6.0 | 0.00 | 0.19 | 0.00 | 86 | 1009.9 |
| 20260509142804 | 61 | 145 | 5.0 | 8.0 | 0.00 | 0.19 | 0.00 | 86 | 1009.7 |
| 20260509141803 | 61 | 123 | 5.0 | 8.0 | 0.00 | 0.19 | 0.00 | 88 | 1009.7 |
| 20260509141303 | 61 | 145 | 3.0 | 6.0 | 0.00 | 0.19 | 0.00 | 88 | 1009.7 |
| 20260509140804 | 61 | 145 | 2.0 | 7.0 | 0.00 | 0.19 | 0.00 | 88 | 1009.6 |
| 20260509140303 | 60 | 219 | 2.0 | 6.0 | 0.00 | 0.19 | 0.00 | 88 | 1009.6 |
| 20260509135804 | 60 | 145 | 2.0 | 5.0 | 0.00 | 0.19 | 0.00 | 89 | 1009.6 |
| 20260509135306 | 60 | 229 | 2.0 | 7.0 | 0.00 | 0.19 | 0.00 | 89 | 1009.6 |
| 20260509134803 | 59 | 123 | 2.0 | 3.0 | 0.00 | 0.19 | 0.00 | 89 | 1009.5 |
| 20260509133804 | 59 | 123 | 3.0 | 8.0 | 0.00 | 0.19 | 0.00 | 89 | 1009.5 |
| 20260509133304 | 59 | 173 | 3.0 | 8.0 | 0.00 | 0.19 | 0.00 | 90 | 1009.5 |
| 20260509132306 | 59 | 177 | 3.0 | 8.0 | 0.00 | 0.19 | 0.00 | 90 | 1009.8 |
| 20260509131804 | 59 | 100 | 5.0 | 3.0 | 0.00 | 0.19 | 0.00 | 91 | 1009.8 |
| 20260509130803 | 59 | 167 | 3.0 | 6.0 | 0.00 | 0.19 | 0.00 | 91 | 1009.9 |
| 20260509130304 | 58 | 93 | 2.0 | 10.0 | 0.00 | 0.19 | 0.00 | 91 | 1009.9 |
| 20260509125803 | 58 | 77 | 2.0 | 8.0 | 0.00 | 0.19 | 0.00 | 92 | 1009.9 |
| 20260509125307 | 59 | 167 | 3.0 | 8.0 | 0.00 | 0.19 | 0.00 | 92 | 1009.9 |
| 20260509124804 | 58 | 145 | 2.0 | 9.0 | 0.00 | 0.19 | 0.00 | 93 | 1009.8 |
| 20260509124303 | 58 | 145 | 1.0 | 3.0 | 0.00 | 0.19 | 0.00 | 93 | 1009.8 |
| 20260509122804 | 58 | 145 | 2.0 | 8.0 | 0.00 | 0.19 | 0.00 | 94 | 1009.4 |
| 20260509122306 | 58 | 166 | 2.0 | 8.0 | 0.00 | 0.19 | 0.00 | 94 | 1009.4 |
| 20260509121803 | 58 | 235 | 2.0 | 8.0 | 0.00 | 0.19 | 0.00 | 94 | 1009.4 |
| 20260509121304 | 58 | 121 | 3.0 | 6.0 | 0.00 | 0.19 | 0.00 | 95 | 1009.4 |
| 20260509120803 | 58 | 145 | 3.0 | 7.0 | 0.00 | 0.19 | 0.00 | 95 | 1009.7 |
| 20260509115804 | 58 | 145 | 2.0 | 5.0 | 0.00 | 0.19 | 0.00 | 95 | 1009.7 |
| 20260509115306 | 57 | 208 | 2.0 | 6.0 | 0.00 | 0.19 | 0.00 | 95 | 1009.7 |
| 20260509114803 | 57 | 10 | 1.0 | 5.0 | 0.00 | 0.19 | 0.00 | 95 | 1009.3 |
| 20260509113803 | 57 | 190 | 0.0 | 0.0 | 0.00 | 0.19 | 0.00 | 95 | 1009.3 |
| 20260509113304 | 57 | 133 | 1.0 | 2.0 | 0.00 | 0.19 | 0.00 | 96 | 1009.3 |
| 20260509112804 | 57 | 167 | 0.0 | 2.0 | 0.00 | 0.19 | 0.00 | 96 | 1009.4 |
| 20260509112306 | 57 | 145 | 1.0 | 2.0 | 0.00 | 0.19 | 0.00 | 96 | 1009.4 |
| 20260509111804 | 57 | 347 | 1.0 | 2.0 | 0.00 | 0.19 | 0.00 | 96 | 1009.4 |
| 20260509111303 | 57 | 123 | 2.0 | 5.0 | 0.00 | 0.19 | 0.00 | 96 | 1009.4 |
| 20260509110804 | 57 | 145 | 2.0 | 6.0 | 0.00 | 0.19 | 0.00 | 96 | 1009.7 |
| 20260509105804 | 57 | 145 | 3.0 | 8.0 | 0.00 | 0.19 | 0.00 | 97 | 1009.7 |
| 20260509105306 | 57 | 145 | 4.0 | 8.0 | 0.00 | 0.19 | 0.00 | 96 | 1009.7 |
| 20260509104304 | 57 | 126 | 2.0 | 9.0 | 0.00 | 0.19 | 0.00 | 96 | 1009.1 |
| 20260509103804 | 57 | 190 | 2.0 | 7.0 | 0.00 | 0.19 | 0.00 | 96 | 1009.1 |
| 20260509103304 | 57 | 145 | 2.0 | 6.0 | 0.00 | 0.19 | 0.00 | 96 | 1009.1 |
| 20260509102803 | 57 | 167 | 1.0 | 3.0 | 0.00 | 0.19 | 0.00 | 96 | 1009.0 |
| 20260509102306 | 57 | 117 | 2.0 | 3.0 | 0.00 | 0.19 | 0.00 | 96 | 1009.0 |
| 20260509101804 | 57 | 257 | 2.0 | 8.0 | 0.00 | 0.19 | 0.00 | 96 | 1009.0 |
| 20260509101304 | 57 | 145 | 2.0 | 8.0 | 0.00 | 0.19 | 0.00 | 96 | 1009.0 |
| 20260509100804 | 57 | 190 | 1.0 | 5.0 | 0.00 | 0.19 | 0.00 | 96 | 1009.0 |
| 20260509095803 | 57 | 145 | 1.0 | 5.0 | 0.00 | 0.19 | 0.00 | 96 | 1009.0 |
| 20260509095306 | 57 | 133 | 1.0 | 6.0 | 0.00 | 0.19 | 0.00 | 96 | 1009.0 |
| 20260509094803 | 57 | 145 | 1.0 | 6.0 | 0.00 | 0.19 | 0.00 | 96 | 1008.8 |
| 20260509094303 | 57 | 158 | 2.0 | 5.0 | 0.00 | 0.19 | 0.00 | 96 | 1008.8 |
| 20260509093803 | 57 | 145 | 1.0 | 6.0 | 0.00 | 0.19 | 0.00 | 96 | 1008.8 |
| 20260509093303 | 57 | 145 | 1.0 | 5.0 | 0.00 | 0.19 | 0.00 | 96 | 1008.8 |
| 20260509092804 | 57 | 145 | 2.0 | 0.0 | 0.00 | 0.19 | 0.00 | 96 | 1008.5 |
| 20260509092305 | 57 | 172 | 2.0 | 7.0 | 0.00 | 0.19 | 0.00 | 96 | 1008.5 |
| 20260509091804 | 57 | 190 | 1.0 | 3.0 | 0.00 | 0.19 | 0.00 | 96 | 1008.5 |
| 20260509091304 | 57 | 123 | 0.0 | 2.0 | 0.00 | 0.19 | 0.00 | 96 | 1008.5 |
| 20260509090803 | 57 | 145 | 1.0 | 2.0 | 0.00 | 0.19 | 0.00 | 96 | 1008.7 |
| 20260509090304 | 57 | 145 | 1.0 | 3.0 | 0.00 | 0.19 | 0.00 | 96 | 1008.7 |
| 20260509085804 | 57 | 145 | 0.0 | 0.0 | 0.00 | 0.19 | 0.00 | 96 | 1008.7 |
| 20260509085306 | 57 | 125 | 1.0 | 0.0 | 0.00 | 0.19 | 0.00 | 96 | 1008.7 |
| 20260509084804 | 57 | 145 | 1.0 | 0.0 | 0.00 | 0.19 | 0.00 | 96 | 1008.6 |
| 20260509084304 | 57 | 157 | 1.0 | 3.0 | 0.00 | 0.19 | 0.00 | 96 | 1008.6 |
| 20260509083803 | 57 | 123 | 1.0 | 2.0 | 0.00 | 0.19 | 0.00 | 96 | 1008.6 |
| 20260509082804 | 57 | 145 | 1.0 | 0.0 | 0.00 | 0.19 | 0.00 | 96 | 1008.7 |
| 20260509081803 | 57 | 145 | 2.0 | 0.0 | 0.00 | 0.19 | 0.00 | 96 | 1008.7 |
| 20260509081304 | 57 | 145 | 3.0 | 5.0 | 0.00 | 0.19 | 0.00 | 96 | 1008.7 |
| 20260509080804 | 57 | 145 | 3.0 | 5.0 | 0.00 | 0.19 | 0.00 | 96 | 1008.5 |
| 20260509080303 | 57 | 145 | 2.0 | 5.0 | 0.00 | 0.19 | 0.00 | 96 | 1008.5 |
| 20260509075306 | 57 | 138 | 1.0 | 6.0 | 0.00 | 0.19 | 0.00 | 96 | 1008.5 |
| 20260509074804 | 57 | 145 | 1.0 | 6.0 | 0.00 | 0.19 | 0.00 | 96 | 1008.5 |
| 20260509074303 | 57 | 167 | 1.0 | 3.0 | 0.00 | 0.19 | 0.00 | 96 | 1008.5 |
| 20260509073804 | 57 | 145 | 1.0 | 5.0 | 0.00 | 0.19 | 0.00 | 96 | 1008.5 |
| 20260509073304 | 57 | 145 | 0.0 | 5.0 | 0.00 | 0.19 | 0.00 | 96 | 1008.5 |
| 20260509072804 | 57 | 145 | 0.0 | 0.0 | 0.00 | 0.19 | 0.00 | 96 | 1008.7 |
| 20260509072306 | 57 | 145 | 0.0 | 0.0 | 0.00 | 0.19 | 0.00 | 95 | 1008.7 |
| 20260509071804 | 57 | 280 | 0.0 | 0.0 | 0.00 | 0.19 | 0.00 | 95 | 1008.7 |
| 20260509071304 | 57 | 145 | 0.0 | 0.0 | 0.00 | 0.19 | 0.00 | 95 | 1008.7 |
| 20260509070803 | 57 | 145 | 0.0 | 0.0 | 0.00 | 0.19 | 0.00 | 95 | 1008.7 |
| 20260509070304 | 57 | 135 | 0.0 | 0.0 | 0.00 | 0.19 | 0.00 | 95 | 1008.7 |
| 20260509065804 | 57 | 123 | 0.0 | 0.0 | 0.00 | 0.19 | 0.00 | 94 | 1008.7 |
| 20260509065306 | 57 | 123 | 0.0 | 0.0 | 0.00 | 0.19 | 0.00 | 94 | 1008.7 |
| 20260509064804 | 57 | 123 | 0.0 | 0.0 | 0.00 | 0.19 | 0.00 | 94 | 1008.5 |
| 20260509064304 | 57 | 123 | 0.0 | 0.0 | 0.00 | 0.19 | 0.00 | 94 | 1008.5 |
| 20260509063804 | 57 | 123 | 0.0 | 0.0 | 0.00 | 0.19 | 0.00 | 94 | 1008.5 |
| 20260509063304 | 57 | 123 | 0.0 | 0.0 | 0.00 | 0.19 | 0.00 | 94 | 1008.5 |
| 20260509062804 | 58 | 123 | 0.0 | 0.0 | 0.00 | 0.19 | 0.00 | 94 | 1008.3 |
| 20260509062306 | 58 | 123 | 0.0 | 0.0 | 0.00 | 0.19 | 0.00 | 94 | 1008.3 |
| 20260509061804 | 58 | 190 | 0.0 | 0.0 | 0.00 | 0.19 | 0.00 | 94 | 1008.3 |
| 20260509061304 | 58 | 190 | 0.0 | 0.0 | 0.00 | 0.19 | 0.00 | 94 | 1008.3 |
| 20260509060804 | 58 | 190 | 0.0 | 0.0 | 0.00 | 0.19 | 0.00 | 94 | 1008.8 |
| 20260509060304 | 58 | 235 | 0.0 | 0.0 | 0.00 | 0.19 | 0.00 | 94 | 1008.8 |
| 20260509055804 | 58 | 190 | 0.0 | 0.0 | 0.00 | 0.19 | 0.00 | 94 | 1008.8 |
| 20260509055306 | 58 | 167 | 0.0 | 0.0 | 0.00 | 0.19 | 0.00 | 94 | 1008.8 |
| 20260509054802 | 58 | 167 | 0.0 | 0.0 | 0.00 | 0.19 | 0.00 | 94 | 1008.6 |
| 20260509053302 | 58 | 143 | 0.0 | 0.0 | 0.00 | 0.19 | 0.00 | 94 | 1008.6 |
| 20260509052802 | 58 | 190 | 0.0 | 0.0 | 0.00 | 0.19 | 0.00 | 94 | 1008.4 |
| 20260509052306 | 58 | 118 | 0.0 | 0.0 | 0.00 | 0.19 | 0.00 | 94 | 1008.4 |
| 20260509051802 | 58 | 145 | 0.0 | 0.0 | 0.00 | 0.19 | 0.00 | 94 | 1008.4 |
| 20260509051302 | 58 | 106 | 0.0 | 0.0 | 0.00 | 0.19 | 0.00 | 94 | 1008.4 |
| 20260509050820 | 58 | 145 | 0.0 | 0.0 | 0.00 | 0.19 | 0.00 | 93 | 1008.9 |
| 20260509050302 | 59 | 182 | 0.0 | 0.0 | 0.00 | 0.19 | 0.00 | 93 | 1008.9 |
| 20260509045802 | 59 | 145 | 0.0 | 0.0 | 0.00 | 0.19 | 0.19 | 94 | 1008.9 |
| 20260509045306 | 59 | 125 | 0.0 | 5.0 | 0.00 | 0.19 | 0.19 | 94 | 1008.9 |
| 20260509044803 | 59 | 145 | 0.0 | 0.0 | 0.00 | 0.19 | 0.19 | 93 | 1008.9 |
| 20260509044302 | 59 | 145 | 0.0 | 2.0 | 0.00 | 0.19 | 0.19 | 93 | 1008.9 |